Time;durP1;ratioP1;P1;durP2;ratioP2;P2;SDS_P1;SDS_P2;PMS_P1;PMS_P2;Temp;Humidity;BMP_temperature;BMP_pressure;BME280_temperature;BME280_humidity;BME280_pressure;Samples;Min_cycle;Max_cycle;Signal;HPM_P1;HPM_P2
2023/07/16 00:02:04;;;;;;;10.17;8.20;;;20.60;99.90;;;;;;5028549;28;20604;-79
2023/07/16 00:04:31;;;;;;;4.38;3.75;;;20.60;99.90;;;;;;5026063;28;20206;-79
2023/07/16 00:06:56;;;;;;;4.47;4.07;;;20.60;99.90;;;;;;5027097;28;20650;-75
2023/07/16 00:09:22;;;;;;;4.10;3.70;;;20.60;99.90;;;;;;5026496;28;20285;-79
2023/07/16 00:11:48;;;;;;;3.50;3.20;;;20.60;99.90;;;;;;5027481;28;20477;-75
2023/07/16 00:14:13;;;;;;;3.93;3.63;;;20.60;99.90;;;;;;5027828;28;20248;-75
2023/07/16 00:16:39;;;;;;;3.07;2.87;;;20.60;99.90;;;;;;5026085;28;20213;-79
2023/07/16 00:19:04;;;;;;;2.90;2.70;;;20.20;99.90;;;;;;5026161;28;20197;-75
2023/07/16 00:21:30;;;;;;;2.90;2.50;;;20.50;99.90;;;;;;5025480;28;20198;-75
2023/07/16 00:23:56;;;;;;;3.20;3.00;;;20.60;99.90;;;;;;5028796;28;20308;-76
2023/07/16 00:26:21;;;;;;;2.97;2.77;;;20.50;99.90;;;;;;5028033;28;20532;-77
2023/07/16 00:28:47;;;;;;;3.13;2.87;;;20.60;99.90;;;;;;5022810;28;20660;-74
2023/07/16 00:31:13;;;;;;;3.23;3.00;;;20.60;99.90;;;;;;5027623;28;20189;-75
2023/07/16 00:33:38;;;;;;;7.43;2.47;;;20.20;99.90;;;;;;5027325;28;20246;-75
2023/07/16 00:36:04;;;;;;;2.17;1.97;;;20.60;99.90;;;;;;5027074;28;20862;-78
2023/07/16 00:38:30;;;;;;;3.70;2.20;;;20.40;99.90;;;;;;5025951;28;20185;-74
2023/07/16 00:40:56;;;;;;;2.10;2.00;;;20.30;99.90;;;;;;5028810;28;20281;-75
2023/07/16 00:43:22;;;;;;;4.63;2.50;;;20.30;99.90;;;;;;5024663;28;20285;-74
2023/07/16 00:45:48;;;;;;;2.30;2.10;;;20.30;99.90;;;;;;5027728;28;20684;-74
2023/07/16 00:48:14;;;;;;;2.50;2.30;;;20.40;99.90;;;;;;5027844;28;20198;-75
2023/07/16 00:50:41;;;;;;;1.95;1.85;;;20.20;99.90;;;;;;5027080;28;20195;-75
2023/07/16 00:53:08;;;;;;;5.68;2.65;;;20.20;99.90;;;;;;5028190;28;20213;-80
2023/07/16 00:55:35;;;;;;;2.70;2.50;;;20.20;99.90;;;;;;5027698;28;20221;-76
2023/07/16 00:58:05;;;;;;;2.28;2.00;;;20.30;99.90;;;;;;5024878;28;20212;-75
2023/07/16 01:00:35;;;;;;;2.33;2.13;;;20.30;99.90;;;;;;5025821;28;20205;-75
2023/07/16 01:03:04;;;;;;;2.38;2.17;;;20.30;99.90;;;;;;5026860;28;20174;-75
2023/07/16 01:05:39;;;;;;;2.00;1.90;;;20.30;99.90;;;;;;5029106;28;20182;-75
2023/07/16 01:08:09;;;;;;;2.10;1.75;;;20.30;99.90;;;;;;5024552;28;20178;-75
2023/07/16 01:10:37;;;;;;;2.20;2.00;;;20.30;99.90;;;;;;5026594;28;20722;-76
2023/07/16 01:13:03;;;;;;;3.22;2.08;;;20.30;99.90;;;;;;5026446;28;20214;-79
2023/07/16 01:15:29;;;;;;;2.50;2.30;;;20.40;99.90;;;;;;5027043;28;20189;-77
2023/07/16 01:17:54;;;;;;;2.40;2.20;;;20.40;99.90;;;;;;5022730;28;20612;-76
2023/07/16 01:20:20;;;;;;;2.00;1.80;;;20.30;99.90;;;;;;5024294;28;20183;-74
2023/07/16 01:23:03;;;;;;;2.60;2.40;;;20.40;99.90;;;;;;5026229;28;20186;-78
2023/07/16 01:25:56;;;;;;;3.83;2.55;;;20.40;99.90;;;;;;5027454;28;20507;-76
2023/07/16 01:28:45;;;;;;;2.25;2.15;;;20.40;99.90;;;;;;5024939;28;20189;-75
2023/07/16 01:31:11;;;;;;;2.30;2.10;;;20.40;99.90;;;;;;5024905;28;20190;-74
2023/07/16 01:33:40;;;;;;;3.22;3.00;;;20.50;99.90;;;;;;5028115;28;20198;-74
2023/07/16 01:36:07;;;;;;;2.05;1.80;;;20.40;99.90;;;;;;5027009;28;20240;-78
2023/07/16 01:38:33;;;;;;;2.57;2.37;;;20.40;99.90;;;;;;5023149;28;20178;-76
2023/07/16 01:40:59;;;;;;;1.95;1.85;;;20.10;99.90;;;;;;5025471;28;20480;-75
2023/07/16 01:43:24;;;;;;;2.00;1.73;;;20.40;99.90;;;;;;5024517;28;20225;-77
2023/07/16 01:45:50;;;;;;;2.03;1.80;;;20.60;99.90;;;;;;5026357;28;20225;-75
2023/07/16 01:48:34;;;;;;;1.80;1.60;;;20.30;99.90;;;;;;5027443;28;20182;-78
2023/07/16 01:50:59;;;;;;;2.10;1.60;;;20.20;99.90;;;;;;5023092;28;20214;-75
2023/07/16 01:53:25;;;;;;;6.30;1.80;;;20.00;99.90;;;;;;5024918;28;20252;-77
2023/07/16 01:55:51;;;;;;;1.67;1.57;;;19.80;99.90;;;;;;5025929;28;20213;-79
2023/07/16 01:58:17;;;;;;;1.40;1.30;;;19.90;99.90;;;;;;5024273;28;20437;-75
2023/07/16 02:00:43;;;;;;;1.30;1.20;;;19.90;99.90;;;;;;5025102;28;20197;-76
2023/07/16 02:03:08;;;;;;;1.43;1.33;;;19.80;99.90;;;;;;5025410;28;20207;-78
2023/07/16 02:05:34;;;;;;;2.70;1.53;;;19.90;99.90;;;;;;5026461;28;20193;-79
2023/07/16 02:08:00;;;;;;;1.50;1.40;;;20.00;99.90;;;;;;5019479;28;20205;-75
2023/07/16 02:10:26;;;;;;;1.35;1.25;;;20.10;99.90;;;;;;5027926;28;20190;-75
2023/07/16 02:12:51;;;;;;;1.50;1.40;;;20.10;99.90;;;;;;5025174;28;20236;-75
2023/07/16 02:15:17;;;;;;;1.60;1.50;;;20.00;99.90;;;;;;5026540;28;20233;-75
2023/07/16 02:17:44;;;;;;;2.10;1.90;;;20.10;99.90;;;;;;5023157;28;20266;-77
2023/07/16 02:20:10;;;;;;;4.30;1.90;;;20.10;99.90;;;;;;5024025;28;20445;-76
2023/07/16 02:22:36;;;;;;;1.70;1.60;;;19.90;99.90;;;;;;5025766;28;20194;-76
2023/07/16 02:25:03;;;;;;;1.63;1.52;;;19.90;99.90;;;;;;5027460;28;20223;-76
2023/07/16 02:27:28;;;;;;;1.70;1.60;;;20.00;99.90;;;;;;5026623;28;20242;-76
2023/07/16 02:29:54;;;;;;;2.00;1.90;;;19.80;99.90;;;;;;5026560;28;20217;-75
2023/07/16 02:32:20;;;;;;;1.70;1.60;;;19.70;99.90;;;;;;5031196;28;20208;-77
2023/07/16 02:34:45;;;;;;;1.50;1.40;;;19.70;99.90;;;;;;5030151;28;20296;-76
2023/07/16 02:37:11;;;;;;;2.53;1.80;;;19.80;99.90;;;;;;5026598;28;20213;-75
2023/07/16 02:39:38;;;;;;;1.73;1.63;;;19.90;99.90;;;;;;5030410;28;20188;-75
2023/07/16 02:42:04;;;;;;;1.60;1.50;;;19.90;99.90;;;;;;5031061;28;20488;-75
2023/07/16 02:44:30;;;;;;;1.57;1.47;;;19.90;99.90;;;;;;5028995;28;20206;-75
2023/07/16 02:46:55;;;;;;;1.63;1.53;;;19.80;99.90;;;;;;5029845;28;20440;-77
2023/07/16 02:49:21;;;;;;;2.00;1.40;;;19.80;99.90;;;;;;5029006;28;20190;-76
2023/07/16 02:51:47;;;;;;;2.00;1.50;;;19.80;99.90;;;;;;5029403;28;20260;-78
2023/07/16 02:54:13;;;;;;;1.43;1.33;;;19.70;99.90;;;;;;5028949;28;20483;-75
2023/07/16 02:56:38;;;;;;;1.20;1.10;;;19.70;99.90;;;;;;5031718;28;20209;-75
2023/07/16 02:59:04;;;;;;;1.37;1.27;;;19.60;99.90;;;;;;5024822;28;20186;-76
2023/07/16 03:01:29;;;;;;;1.97;1.67;;;19.50;99.90;;;;;;5030842;28;20304;-79
2023/07/16 03:03:55;;;;;;;1.97;1.40;;;19.50;99.90;;;;;;5029964;28;20215;-76
2023/07/16 03:06:21;;;;;;;2.77;1.43;;;19.40;99.90;;;;;;5029278;28;20192;-75
2023/07/16 03:08:46;;;;;;;1.30;1.20;;;19.40;99.90;;;;;;5030298;28;20187;-76
2023/07/16 03:11:12;;;;;;;1.53;1.40;;;19.30;99.90;;;;;;5029580;28;20274;-74
2023/07/16 03:13:38;;;;;;;2.50;1.50;;;18.90;99.90;;;;;;5029627;28;20686;-74
2023/07/16 03:16:04;;;;;;;1.90;1.47;;;19.30;99.90;;;;;;5028996;28;20214;-76
2023/07/16 03:18:30;;;;;;;1.80;1.40;;;19.30;99.90;;;;;;5025428;28;20221;-74
2023/07/16 03:20:59;;;;;;;2.42;1.92;;;19.30;99.90;;;;;;5027757;28;20537;-75
2023/07/16 03:23:25;;;;;;;2.33;1.80;;;19.20;99.90;;;;;;5026120;28;20335;-74
2023/07/16 03:25:51;;;;;;;2.70;1.37;;;19.20;99.90;;;;;;5031120;28;20677;-75
2023/07/16 03:28:17;;;;;;;1.52;1.30;;;19.20;99.90;;;;;;5026425;28;20666;-74
2023/07/16 03:30:50;;;;;;;4.27;2.60;;;19.40;99.90;;;;;;5030102;28;20182;-75
2023/07/16 03:33:16;;;;;;;2.30;1.60;;;19.20;99.90;;;;;;5031348;28;20213;-80
2023/07/16 03:35:43;;;;;;;1.95;1.60;;;19.20;99.90;;;;;;5028034;28;20581;-79
2023/07/16 03:38:10;;;;;;;2.08;1.58;;;19.20;99.90;;;;;;5028560;28;20600;-76
2023/07/16 03:40:36;;;;;;;3.58;1.65;;;19.20;99.90;;;;;;5029936;28;20209;-75
2023/07/16 03:43:02;;;;;;;2.53;1.67;;;19.10;99.90;;;;;;5026304;28;20648;-74
2023/07/16 03:45:27;;;;;;;3.50;1.93;;;19.20;99.90;;;;;;5028599;28;20182;-75
2023/07/16 03:47:53;;;;;;;2.53;1.67;;;19.20;99.90;;;;;;5031512;28;20566;-75
2023/07/16 03:50:19;;;;;;;3.23;1.70;;;19.10;99.90;;;;;;5026907;28;20178;-77
2023/07/16 03:52:45;;;;;;;1.67;1.50;;;19.10;99.90;;;;;;5029597;28;20445;-74
2023/07/16 03:55:10;;;;;;;3.27;1.60;;;19.10;99.90;;;;;;5028682;28;20186;-76
2023/07/16 03:57:36;;;;;;;3.97;1.80;;;19.10;99.90;;;;;;5021975;28;20369;-79
2023/07/16 04:00:05;;;;;;;1.73;1.63;;;19.20;99.90;;;;;;5018097;28;20567;-78
2023/07/16 04:02:31;;;;;;;3.35;1.55;;;19.20;99.90;;;;;;5029071;28;20579;-74
2023/07/16 04:04:57;;;;;;;2.47;1.93;;;19.20;99.90;;;;;;5030705;28;20209;-75
2023/07/16 04:07:22;;;;;;;1.90;1.30;;;19.20;99.90;;;;;;5028883;28;20186;-75
2023/07/16 04:09:48;;;;;;;5.03;1.80;;;19.20;99.90;;;;;;5027623;28;20277;-74
2023/07/16 04:12:13;;;;;;;2.90;2.13;;;19.20;99.90;;;;;;5028505;28;20571;-74
2023/07/16 04:14:39;;;;;;;3.80;1.80;;;19.20;99.90;;;;;;5019759;28;20216;-75
2023/07/16 04:17:05;;;;;;;4.83;1.80;;;19.30;99.90;;;;;;5026645;28;20309;-75
2023/07/16 04:19:31;;;;;;;1.80;1.67;;;19.20;99.90;;;;;;5022291;28;20189;-74
2023/07/16 04:21:57;;;;;;;3.67;1.75;;;19.10;99.90;;;;;;5027874;28;20190;-74
2023/07/16 04:24:23;;;;;;;3.20;2.23;;;19.10;99.90;;;;;;5027950;28;20198;-75
2023/07/16 04:26:49;;;;;;;2.00;1.73;;;19.10;99.90;;;;;;5024799;28;20179;-74
2023/07/16 04:29:15;;;;;;;2.37;1.77;;;19.10;99.90;;;;;;5026390;28;20236;-74
2023/07/16 04:31:41;;;;;;;2.60;1.85;;;19.00;99.90;;;;;;5031000;28;20193;-70
2023/07/16 04:34:06;;;;;;;2.73;1.70;;;19.00;99.90;;;;;;5027946;28;20210;-72
2023/07/16 04:36:32;;;;;;;1.60;1.50;;;19.10;99.90;;;;;;5022097;28;20212;-73
2023/07/16 04:38:57;;;;;;;2.77;2.20;;;19.00;99.90;;;;;;5022805;28;20186;-72
2023/07/16 04:41:23;;;;;;;2.60;1.80;;;19.00;99.90;;;;;;5025656;28;20175;-73
2023/07/16 04:43:49;;;;;;;2.50;1.93;;;19.10;99.90;;;;;;5026520;28;20221;-72
2023/07/16 04:46:16;;;;;;;2.60;2.07;;;19.10;99.90;;;;;;5027904;28;20690;-73
2023/07/16 04:48:41;;;;;;;2.08;1.88;;;19.00;99.90;;;;;;5020605;28;20179;-72
2023/07/16 04:51:07;;;;;;;2.60;2.20;;;19.00;99.90;;;;;;5028155;28;20195;-73
2023/07/16 04:53:33;;;;;;;2.90;2.10;;;19.00;99.90;;;;;;5022616;28;20203;-73
2023/07/16 04:55:58;;;;;;;2.13;1.93;;;19.00;99.90;;;;;;5029445;28;20565;-73
2023/07/16 04:58:24;;;;;;;4.30;2.43;;;19.10;99.90;;;;;;5023752;28;20182;-72
2023/07/16 05:00:49;;;;;;;4.13;2.70;;;19.00;99.90;;;;;;5026483;28;20182;-73
2023/07/16 05:03:16;;;;;;;3.85;1.92;;;19.10;99.90;;;;;;5022954;28;20587;-72
2023/07/16 05:05:42;;;;;;;2.53;1.97;;;19.00;99.90;;;;;;5024931;28;20221;-73
2023/07/16 05:08:07;;;;;;;2.40;2.10;;;19.00;99.90;;;;;;5023373;28;20494;-73
2023/07/16 05:10:33;;;;;;;3.23;2.17;;;18.80;99.90;;;;;;5022521;28;20197;-73
2023/07/16 05:12:59;;;;;;;2.93;2.07;;;19.10;99.90;;;;;;5022726;28;20268;-73
2023/07/16 05:15:25;;;;;;;3.73;2.30;;;19.10;99.90;;;;;;5023942;28;20449;-73
2023/07/16 05:17:50;;;;;;;2.80;1.90;;;19.00;99.90;;;;;;5026052;28;20182;-73
2023/07/16 05:20:16;;;;;;;2.40;1.83;;;19.00;99.90;;;;;;5025805;28;20208;-74
2023/07/16 05:22:42;;;;;;;3.30;1.70;;;19.00;99.90;;;;;;5020994;28;20184;-73
2023/07/16 05:25:08;;;;;;;3.30;1.77;;;19.10;99.90;;;;;;5019122;28;20229;-73
2023/07/16 05:27:33;;;;;;;3.53;2.55;;;19.10;99.90;;;;;;5022872;28;20226;-73
2023/07/16 05:29:59;;;;;;;1.90;1.73;;;19.20;99.90;;;;;;5019099;28;20187;-73
2023/07/16 05:32:24;;;;;;;2.20;2.00;;;19.20;99.90;;;;;;5025238;28;20200;-73
2023/07/16 05:34:50;;;;;;;2.97;2.20;;;19.20;99.90;;;;;;5019387;28;20297;-73
2023/07/16 05:37:16;;;;;;;2.20;2.10;;;19.30;99.90;;;;;;5021254;28;20626;-73
2023/07/16 05:39:41;;;;;;;3.33;2.27;;;19.30;99.90;;;;;;5015708;28;20190;-73
2023/07/16 05:42:07;;;;;;;3.63;2.57;;;19.20;99.90;;;;;;5022454;28;20711;-73
2023/07/16 05:44:33;;;;;;;2.00;1.70;;;19.30;99.90;;;;;;5015471;28;20198;-73
2023/07/16 05:46:59;;;;;;;4.33;2.07;;;19.50;99.90;;;;;;5024996;28;20181;-73
2023/07/16 05:49:26;;;;;;;2.07;1.70;;;19.60;99.90;;;;;;5025302;28;20677;-74
2023/07/16 05:51:52;;;;;;;5.47;1.80;;;19.80;99.90;;;;;;5026297;28;20317;-73
2023/07/16 05:54:18;;;;;;;4.63;2.35;;;19.80;99.90;;;;;;5022766;28;20589;-73
2023/07/16 05:56:43;;;;;;;2.43;1.50;;;19.90;99.90;;;;;;5026557;28;20210;-73
2023/07/16 05:59:09;;;;;;;2.13;1.67;;;19.90;99.90;;;;;;5019243;28;20205;-73
2023/07/16 06:01:35;;;;;;;2.83;1.90;;;19.90;99.90;;;;;;5023989;28;20840;-68
2023/07/16 06:04:01;;;;;;;10.85;2.20;;;20.00;99.90;;;;;;5021728;28;20642;-70
2023/07/16 06:06:28;;;;;;;1.70;1.60;;;20.10;99.90;;;;;;5022745;28;20269;-69
2023/07/16 06:08:53;;;;;;;3.80;2.35;;;20.20;99.90;;;;;;5022787;28;20185;-68
2023/07/16 06:11:19;;;;;;;5.30;1.87;;;20.20;99.90;;;;;;5022638;28;20189;-65
2023/07/16 06:13:45;;;;;;;3.43;2.30;;;20.20;99.90;;;;;;5017539;28;20209;-68
2023/07/16 06:16:10;;;;;;;2.00;1.40;;;20.20;99.90;;;;;;5023795;28;20217;-66
2023/07/16 06:18:36;;;;;;;4.17;1.47;;;20.40;99.90;;;;;;5017812;28;20191;-68
2023/07/16 06:21:02;;;;;;;2.40;1.67;;;19.90;99.90;;;;;;5021774;28;20207;-69
2023/07/16 06:23:27;;;;;;;3.33;1.87;;;20.30;99.90;;;;;;5021900;28;20221;-67
2023/07/16 06:25:56;;;;;;;4.57;2.00;;;20.30;99.90;;;;;;5021070;28;20217;-70
2023/07/16 06:28:23;;;;;;;5.80;1.98;;;20.10;99.90;;;;;;5020210;28;20178;-65
2023/07/16 06:30:51;;;;;;;3.55;1.92;;;20.10;99.90;;;;;;5021239;28;20186;-66
2023/07/16 06:33:16;;;;;;;2.00;1.80;;;20.10;99.90;;;;;;5024156;28;20572;-68
2023/07/16 06:35:45;;;;;;;1.93;1.67;;;20.10;99.90;;;;;;5021752;28;20193;-69
2023/07/16 06:38:11;;;;;;;4.72;1.73;;;20.10;99.90;;;;;;5019745;28;20193;-70
2023/07/16 06:40:37;;;;;;;2.17;1.97;;;20.00;99.90;;;;;;5019298;28;20184;-68
2023/07/16 06:43:02;;;;;;;4.23;2.10;;;20.20;99.90;;;;;;5022726;28;20299;-72
2023/07/16 06:45:28;;;;;;;3.37;1.77;;;20.30;99.90;;;;;;5024383;28;20194;-69
2023/07/16 06:47:53;;;;;;;2.10;1.70;;;20.30;99.90;;;;;;5022764;28;20191;-69
2023/07/16 06:50:19;;;;;;;2.30;1.63;;;20.30;99.90;;;;;;5023050;28;20210;-71
2023/07/16 06:52:44;;;;;;;5.50;1.93;;;20.40;99.90;;;;;;5016224;28;20557;-68
2023/07/16 06:55:10;;;;;;;5.83;2.87;;;20.50;99.90;;;;;;5026966;28;20229;-70
2023/07/16 06:57:36;;;;;;;2.60;1.83;;;20.80;99.90;;;;;;5027892;28;20683;-70
2023/07/16 07:00:02;;;;;;;2.10;1.90;;;21.00;99.90;;;;;;5024478;28;20644;-68
2023/07/16 07:02:28;;;;;;;2.45;1.90;;;20.90;99.90;;;;;;5023705;28;20190;-70
2023/07/16 07:04:53;;;;;;;2.27;1.80;;;21.30;99.90;;;;;;5024824;28;20202;-70
2023/07/16 07:07:19;;;;;;;4.03;2.20;;;21.70;99.90;;;;;;5018944;28;20483;-71
2023/07/16 07:09:48;;;;;;;2.80;1.60;;;22.10;99.90;;;;;;5023565;28;20189;-66
2023/07/16 07:12:14;;;;;;;2.47;1.70;;;22.30;99.90;;;;;;5022433;28;20191;-70
2023/07/16 07:14:39;;;;;;;2.20;2.00;;;23.10;99.90;;;;;;5021782;28;20469;-70
2023/07/16 07:17:05;;;;;;;1.90;1.60;;;24.80;99.90;;;;;;5026676;28;20214;-71
2023/07/16 07:19:32;;;;;;;9.53;2.80;;;27.30;94.80;;;;;;5025863;28;20193;-70
2023/07/16 07:21:57;;;;;;;3.00;1.80;;;28.90;91.10;;;;;;5024410;28;20635;-71
2023/07/16 07:24:23;;;;;;;2.63;1.70;;;31.30;82.50;;;;;;5028527;28;20484;-74
2023/07/16 07:26:50;;;;;;;2.53;1.70;;;32.20;74.20;;;;;;5023638;28;20443;-77
2023/07/16 07:29:18;;;;;;;2.37;1.73;;;32.80;67.90;;;;;;5027133;28;20182;-74
2023/07/16 07:31:47;;;;;;;2.50;1.90;;;33.40;65.40;;;;;;5026789;28;20451;-75
2023/07/16 07:34:12;;;;;;;2.60;1.70;;;34.40;59.50;;;;;;5024953;28;20460;-75
2023/07/16 07:36:38;;;;;;;3.33;2.10;;;34.00;57.20;;;;;;5016453;28;20464;-75
2023/07/16 07:39:04;;;;;;;4.00;1.67;;;33.80;57.10;;;;;;5018062;28;20714;-75
2023/07/16 07:41:29;;;;;;;2.23;1.70;;;32.60;58.70;;;;;;5023261;28;20191;-75
2023/07/16 07:43:55;;;;;;;1.93;1.83;;;32.60;59.60;;;;;;5021537;28;20252;-74
2023/07/16 07:46:21;;;;;;;4.83;1.70;;;33.20;58.30;;;;;;5019925;28;20193;-75
2023/07/16 07:48:46;;;;;;;2.77;2.00;;;32.30;58.70;;;;;;5020965;28;20761;-73
2023/07/16 07:51:12;;;;;;;1.60;1.50;;;30.80;60.10;;;;;;5018580;28;20190;-73
2023/07/16 07:53:38;;;;;;;1.83;1.63;;;29.90;63.00;;;;;;5025126;28;20253;-74
2023/07/16 07:56:04;;;;;;;2.17;1.70;;;29.80;63.70;;;;;;5019869;28;20210;-74
2023/07/16 07:58:29;;;;;;;3.20;2.23;;;28.60;67.00;;;;;;5019976;28;20458;-76
2023/07/16 08:00:55;;;;;;;1.80;1.60;;;29.10;70.00;;;;;;5020234;28;20183;-73
2023/07/16 08:03:20;;;;;;;1.67;1.47;;;30.00;67.30;;;;;;5022009;28;20203;-74
2023/07/16 08:05:49;;;;;;;4.40;2.70;;;30.80;63.60;;;;;;5026006;28;20194;-76
2023/07/16 08:08:14;;;;;;;2.13;1.90;;;32.30;60.70;;;;;;5019833;28;20627;-73
2023/07/16 08:10:40;;;;;;;3.00;1.90;;;33.00;57.80;;;;;;5021138;28;20444;-76
2023/07/16 08:13:06;;;;;;;2.27;1.80;;;33.80;55.30;;;;;;5022478;28;20209;-74
2023/07/16 08:15:31;;;;;;;2.87;1.67;;;34.50;53.30;;;;;;5027195;28;20902;-73
2023/07/16 08:17:59;;;;;;;2.30;1.80;;;34.30;54.10;;;;;;5025391;28;20623;-76
2023/07/16 08:20:25;;;;;;;3.30;2.40;;;34.00;52.90;;;;;;5022661;28;20674;-76
2023/07/16 08:22:51;;;;;;;2.70;1.67;;;34.00;53.30;;;;;;5017606;28;20905;-75
2023/07/16 08:25:16;;;;;;;2.30;2.10;;;33.70;53.50;;;;;;5021147;28;20444;-73
2023/07/16 08:27:42;;;;;;;2.00;1.80;;;33.20;53.20;;;;;;5023254;28;20640;-74
2023/07/16 08:30:08;;;;;;;2.17;1.90;;;33.20;54.00;;;;;;5024047;28;20202;-76
2023/07/16 08:32:34;;;;;;;4.23;1.90;;;32.50;53.80;;;;;;5018368;28;20671;-75
2023/07/16 08:34:59;;;;;;;1.77;1.60;;;31.10;54.80;;;;;;5019966;28;20467;-75
2023/07/16 08:37:25;;;;;;;5.47;2.20;;;30.40;56.50;;;;;;5021051;28;20577;-72
2023/07/16 08:39:54;;;;;;;2.70;1.60;;;29.50;57.70;;;;;;5026044;28;20190;-76
2023/07/16 08:42:20;;;;;;;3.13;1.97;;;28.20;58.70;;;;;;5021666;28;20187;-75
2023/07/16 08:44:48;;;;;;;2.13;1.90;;;28.00;61.80;;;;;;5024257;28;20490;-69
2023/07/16 08:47:14;;;;;;;3.10;1.90;;;28.40;62.10;;;;;;5025887;28;20499;-71
2023/07/16 08:49:40;;;;;;;2.70;1.50;;;29.60;59.70;;;;;;5027343;28;20441;-74
2023/07/16 08:52:07;;;;;;;2.37;1.90;;;30.20;58.70;;;;;;5027478;28;20441;-74
2023/07/16 08:54:33;;;;;;;2.80;1.60;;;29.70;57.30;;;;;;5022424;28;20468;-73
2023/07/16 08:56:59;;;;;;;2.33;1.80;;;29.20;59.00;;;;;;5025745;28;21015;-74
2023/07/16 08:59:27;;;;;;;3.10;2.13;;;29.40;60.40;;;;;;5025846;28;20651;-72
2023/07/16 09:01:53;;;;;;;3.27;1.53;;;30.30;58.40;;;;;;5028711;28;20444;-73
2023/07/16 09:04:19;;;;;;;2.03;1.40;;;30.80;57.10;;;;;;5023262;28;20858;-72
2023/07/16 09:06:44;;;;;;;3.30;2.23;;;32.60;54.60;;;;;;5024139;28;20213;-74
2023/07/16 09:09:22;;;;;;;3.00;1.90;;;33.50;51.80;;;;;;5025162;28;20989;-75
2023/07/16 09:11:48;;;;;;;2.07;1.53;;;34.50;49.40;;;;;;5025816;28;20893;-75
2023/07/16 09:14:18;;;;;;;1.57;1.47;;;35.00;47.70;;;;;;5026877;28;21217;-71
2023/07/16 09:16:50;;;;;;;2.00;1.53;;;34.70;48.00;;;;;;5026298;28;20565;-72
2023/07/16 09:19:18;;;;;;;2.13;1.80;;;34.90;47.60;;;;;;5023990;28;20486;-73
2023/07/16 09:21:46;;;;;;;1.70;1.60;;;36.30;45.30;;;;;;5027341;28;20592;-73
2023/07/16 09:24:12;;;;;;;1.40;1.30;;;36.90;44.30;;;;;;5024055;28;20961;-75
2023/07/16 09:26:38;;;;;;;3.63;1.33;;;36.50;41.90;;;;;;5026348;28;20428;-74
2023/07/16 09:29:07;;;;;;;2.07;1.57;;;37.60;41.50;;;;;;5023493;28;20277;-73
2023/07/16 09:31:33;;;;;;;2.17;1.73;;;37.60;40.90;;;;;;5027561;28;20273;-74
2023/07/16 09:33:59;;;;;;;1.50;1.40;;;38.40;39.40;;;;;;5025927;28;20882;-72
2023/07/16 09:36:27;;;;;;;2.23;1.57;;;38.60;37.90;;;;;;5020988;28;20232;-73
2023/07/16 09:38:58;;;;;;;2.20;2.00;;;38.10;38.50;;;;;;5018097;28;20415;-74
2023/07/16 09:41:24;;;;;;;2.17;2.00;;;36.10;40.90;;;;;;5028361;28;20449;-71
2023/07/16 09:43:50;;;;;;;1.47;1.37;;;34.30;42.20;;;;;;5027139;28;20487;-72
2023/07/16 09:46:15;;;;;;;2.97;2.63;;;32.80;44.80;;;;;;5024712;28;20961;-74
2023/07/16 09:48:41;;;;;;;2.07;1.87;;;33.00;46.30;;;;;;5020804;28;20189;-77
2023/07/16 09:51:09;;;;;;;2.87;1.60;;;34.10;44.90;;;;;;5025453;28;20182;-77
2023/07/16 09:53:36;;;;;;;1.60;1.50;;;35.80;42.30;;;;;;5025597;28;20213;-78
2023/07/16 09:56:04;;;;;;;2.37;2.17;;;36.40;41.30;;;;;;5024341;28;21036;-77
2023/07/16 09:58:31;;;;;;;3.57;2.07;;;35.50;42.20;;;;;;5027746;28;20433;-77
2023/07/16 10:00:57;;;;;;;4.27;1.80;;;34.00;43.30;;;;;;5024291;28;20441;-77
2023/07/16 10:03:23;;;;;;;2.30;1.80;;;33.60;44.60;;;;;;5026522;28;20504;-76
2023/07/16 10:05:51;;;;;;;2.20;2.00;;;34.40;44.20;;;;;;5023599;28;20465;-73
2023/07/16 10:08:19;;;;;;;3.07;1.90;;;34.70;43.90;;;;;;5018174;28;20178;-74
2023/07/16 10:10:48;;;;;;;2.60;1.70;;;34.00;43.90;;;;;;5027719;28;20865;-75
2023/07/16 10:13:15;;;;;;;4.33;2.77;;;32.60;45.20;;;;;;5026511;28;20488;-74
2023/07/16 10:16:00;;;;;;;2.50;2.30;;;32.00;47.20;;;;;;5042838;28;21861;-74
2023/07/16 10:18:31;;;;;;;2.57;1.90;;;31.90;48.00;;;;;;5024060;28;20432;-75
2023/07/16 10:21:02;;;;;;;2.90;2.20;;;32.00;48.00;;;;;;5022461;28;20452;-75
2023/07/16 10:23:37;;;;;;;2.33;1.90;;;32.00;48.40;;;;;;5021711;28;20968;-76
2023/07/16 10:26:07;;;;;;;1.90;1.70;;;31.80;47.30;;;;;;5023996;28;20443;-77
2023/07/16 10:28:34;;;;;;;3.03;2.10;;;31.10;48.10;;;;;;5024036;28;20448;-76
2023/07/16 10:31:00;;;;;;;1.70;1.60;;;30.10;50.10;;;;;;5026107;28;20434;-76
2023/07/16 10:33:25;;;;;;;3.17;2.20;;;29.30;51.80;;;;;;5027242;28;20660;-77
2023/07/16 10:35:51;;;;;;;3.70;1.77;;;29.00;53.40;;;;;;5023995;28;20942;-75
2023/07/16 10:38:17;;;;;;;2.73;2.03;;;28.70;54.40;;;;;;5024284;28;20611;-76
2023/07/16 10:40:46;;;;;;;2.20;1.70;;;28.40;55.10;;;;;;5026082;28;20663;-76
2023/07/16 10:43:12;;;;;;;2.13;1.93;;;28.10;55.30;;;;;;5023557;28;20289;-77
2023/07/16 10:45:39;;;;;;;2.40;2.20;;;27.70;56.50;;;;;;5026189;28;20522;-76
2023/07/16 10:48:05;;;;;;;3.33;2.00;;;27.60;55.80;;;;;;5023441;28;20550;-77
2023/07/16 10:50:35;;;;;;;1.70;1.60;;;27.70;57.00;;;;;;5024503;28;20964;-76
2023/07/16 10:53:01;;;;;;;2.10;1.53;;;28.00;56.00;;;;;;5027832;28;20441;-77
2023/07/16 10:55:28;;;;;;;2.03;1.67;;;28.40;54.90;;;;;;5029136;28;20500;-76
2023/07/16 10:57:55;;;;;;;2.40;1.97;;;28.50;54.40;;;;;;5025605;28;20460;-77
2023/07/16 11:00:22;;;;;;;2.20;1.90;;;28.40;55.10;;;;;;5028234;28;20447;-76
2023/07/16 11:02:49;;;;;;;1.83;1.73;;;28.60;54.70;;;;;;5028005;28;20767;-76
2023/07/16 11:05:15;;;;;;;2.20;2.00;;;28.90;54.70;;;;;;5029259;28;20529;-77
2023/07/16 11:07:45;;;;;;;3.40;2.00;;;29.40;54.10;;;;;;5024996;28;20449;-77
2023/07/16 11:10:11;;;;;;;2.80;2.60;;;30.90;50.80;;;;;;5029893;28;20761;-77
2023/07/16 11:12:37;;;;;;;2.17;1.97;;;32.10;48.10;;;;;;5026704;28;20440;-77
2023/07/16 11:15:03;;;;;;;2.00;1.80;;;33.20;47.10;;;;;;5028168;28;20824;-77
2023/07/16 11:17:29;;;;;;;2.03;1.70;;;34.60;43.80;;;;;;5028440;28;20217;-78
2023/07/16 11:19:55;;;;;;;2.90;2.10;;;35.40;42.50;;;;;;5030632;28;20448;-77
2023/07/16 11:22:26;;;;;;;2.10;2.00;;;35.60;41.50;;;;;;5027281;28;20278;-78
2023/07/16 11:24:53;;;;;;;3.03;2.03;;;36.70;40.40;;;;;;5029291;28;20464;-76
2023/07/16 11:37:33;;;;;;;1.87;1.77;;;33.90;43.10;;;;;;5103643;23;21020;-91
2023/07/16 11:40:06;;;;;;;3.87;2.30;;;33.30;44.10;;;;;;5056917;28;20482;-91
2023/07/16 11:42:35;;;;;;;2.47;2.20;;;32.20;45.90;;;;;;5055466;28;20484;-92
2023/07/16 11:45:01;;;;;;;2.07;1.87;;;32.00;46.50;;;;;;5074761;28;20808;-92
2023/07/16 11:47:27;;;;;;;3.50;2.30;;;32.40;46.50;;;;;;5058919;28;20463;-91
2023/07/16 11:49:54;;;;;;;4.13;2.30;;;33.70;45.80;;;;;;5062192;28;20497;-92
2023/07/16 11:52:28;;;;;;;2.73;2.53;;;33.50;46.30;;;;;;5056604;28;20580;-90
2023/07/16 11:54:54;;;;;;;2.77;1.87;;;32.50;45.50;;;;;;5055260;28;20436;-91
2023/07/16 11:57:20;;;;;;;2.17;1.97;;;32.50;47.10;;;;;;5054614;28;20478;-91
2023/07/16 11:59:46;;;;;;;2.57;2.10;;;33.40;47.70;;;;;;5055859;28;20469;-91
2023/07/16 12:02:12;;;;;;;2.03;1.93;;;32.20;48.70;;;;;;5049131;28;20577;-90
2023/07/16 12:04:38;;;;;;;2.13;1.93;;;31.90;49.30;;;;;;5058320;28;20673;-91
2023/07/16 12:07:07;;;;;;;2.17;1.97;;;31.70;48.60;;;;;;5058329;28;20457;-91
2023/07/16 12:09:32;;;;;;;3.47;2.17;;;31.10;49.30;;;;;;5058910;28;20189;-91
2023/07/16 12:11:59;;;;;;;3.33;2.50;;;33.10;53.50;;;;;;5062721;28;20502;-91
2023/07/16 12:14:27;;;;;;;2.40;2.20;;;30.40;51.20;;;;;;5063395;28;20244;-91
2023/07/16 12:16:55;;;;;;;4.00;2.20;;;29.70;54.00;;;;;;5056855;28;20471;-91
2023/07/16 12:19:22;;;;;;;2.90;2.07;;;32.10;55.50;;;;;;5065859;28;21007;-91
2023/07/16 12:21:48;;;;;;;2.30;2.10;;;29.70;55.60;;;;;;5060838;28;20467;-91
2023/07/16 12:24:14;;;;;;;2.10;1.90;;;29.00;55.10;;;;;;5065381;28;20439;-91
2023/07/16 12:26:39;;;;;;;4.10;2.20;;;29.70;56.00;;;;;;5054564;28;20749;-91
2023/07/16 12:29:05;;;;;;;3.63;2.30;;;28.40;56.50;;;;;;5056321;28;20193;-89
2023/07/16 12:31:34;;;;;;;2.37;2.17;;;28.50;56.10;;;;;;5047070;28;20704;-87
2023/07/16 12:34:02;;;;;;;2.50;2.30;;;28.60;55.90;;;;;;5046876;28;20180;-92
2023/07/16 12:36:27;;;;;;;2.67;2.47;;;28.30;57.60;;;;;;5066315;28;20469;-90
2023/07/16 12:38:53;;;;;;;2.00;1.90;;;28.50;57.60;;;;;;5073108;28;20450;-88
2023/07/16 12:41:19;;;;;;;2.23;2.07;;;30.30;58.10;;;;;;5065939;28;20190;-89
2023/07/16 12:43:45;;;;;;;2.10;2.00;;;30.90;57.90;;;;;;5050152;28;20392;-87
2023/07/16 12:46:11;;;;;;;2.37;1.93;;;29.10;56.10;;;;;;5052035;28;20235;-88
2023/07/16 12:48:36;;;;;;;2.20;1.93;;;28.20;56.50;;;;;;5053021;28;20469;-88
2023/07/16 12:51:02;;;;;;;2.80;1.90;;;28.50;56.40;;;;;;5050351;28;20182;-88
2023/07/16 12:53:28;;;;;;;2.43;2.10;;;28.20;55.80;;;;;;5049485;28;20261;-90
2023/07/16 12:55:54;;;;;;;2.20;2.00;;;28.20;55.30;;;;;;5050100;28;20201;-88